Time;durP1;ratioP1;P1;durP2;ratioP2;P2;SDS_P1;SDS_P2;PMS_P1;PMS_P2;Temp;Humidity;BMP_temperature;BMP_pressure;BME280_temperature;BME280_humidity;BME280_pressure;Samples;Min_cycle;Max_cycle;Signal;HPM_P1;HPM_P2
2021/08/29 00:01:00;;;;;;;0.10;0.10;;;;;;;20.69;44.17;100125.59;6304053;22;20458;-64
2021/08/29 00:03:26;;;;;;;0.10;0.10;;;;;;;20.69;44.29;100136.19;6276900;22;20019;-63
2021/08/29 00:05:53;;;;;;;0.10;0.10;;;;;;;20.66;44.39;100123.22;6303953;22;20069;-63
2021/08/29 00:08:19;;;;;;;0.15;0.15;;;;;;;20.64;44.39;100125.19;6276894;22;20015;-63
2021/08/29 00:10:45;;;;;;;0.10;0.10;;;;;;;20.63;44.34;100126.16;6303654;22;20097;-63
2021/08/29 00:13:11;;;;;;;0.10;0.10;;;;;;;20.60;44.32;100122.94;6304166;22;20026;-63
2021/08/29 00:15:38;;;;;;;0.13;0.13;;;;;;;20.56;44.43;100108.28;6276598;22;20015;-65
2021/08/29 00:18:04;;;;;;;0.10;0.10;;;;;;;20.58;44.74;100107.16;6304109;22;20521;-64
2021/08/29 00:20:30;;;;;;;0.10;0.10;;;;;;;20.56;44.60;100116.25;6304441;22;20015;-63
2021/08/29 00:22:56;;;;;;;0.10;0.10;;;;;;;20.56;44.65;100119.75;6303200;22;20523;-64
2021/08/29 00:25:23;;;;;;;0.10;0.10;;;;;;;20.49;44.49;100112.47;6303944;22;20212;-64
2021/08/29 00:27:54;;;;;;;0.10;0.10;;;;;;;20.55;44.56;100117.25;6303868;22;20023;-64
2021/08/29 00:30:20;;;;;;;0.10;0.10;;;;;;;20.51;44.38;100103.41;6303869;22;20022;-64
2021/08/29 00:32:46;;;;;;;0.10;0.10;;;;;;;20.56;44.43;100116.25;6302031;22;20026;-65
2021/08/29 00:35:12;;;;;;;0.10;0.10;;;;;;;20.52;44.44;100102.41;6303899;22;20019;-64
2021/08/29 00:37:38;;;;;;;0.10;0.10;;;;;;;20.55;44.34;100107.44;6303615;22;20022;-66
2021/08/29 00:40:05;;;;;;;0.10;0.10;;;;;;;20.40;44.43;100082.34;6303604;22;20467;-64
2021/08/29 00:42:31;;;;;;;0.10;0.10;;;;;;;20.50;44.48;100103.53;6276666;22;20030;-64
2021/08/29 00:44:57;;;;;;;0.10;0.10;;;;;;;20.54;44.44;100104.94;6303314;22;20035;-64
2021/08/29 00:47:23;;;;;;;0.20;0.20;;;;;;;20.56;44.61;100097.66;6276543;22;20026;-64
2021/08/29 00:49:49;;;;;;;0.10;0.10;;;;;;;20.54;44.38;100089.03;6303203;22;20367;-65
2021/08/29 00:52:17;;;;;;;0.10;0.10;;;;;;;20.52;44.34;100097.13;6276417;22;20019;-64
2021/08/29 00:54:44;;;;;;;0.10;0.10;;;;;;;20.48;44.36;100086.94;6301696;22;20022;-66
2021/08/29 00:57:10;;;;;;;0.10;0.10;;;;;;;20.50;44.48;100096.44;6302261;22;20019;-65
2021/08/29 00:59:43;;;;;;;0.20;0.20;;;;;;;20.48;44.39;100095.75;6275868;22;20015;-65
2021/08/29 01:02:12;;;;;;;0.10;0.10;;;;;;;20.47;44.40;100093.22;6276088;22;20114;-65
2021/08/29 01:04:46;;;;;;;0.10;0.10;;;;;;;20.46;44.53;100081.78;6250997;22;20145;-64
2021/08/29 01:07:18;;;;;;;0.15;0.15;;;;;;;20.47;44.51;100078.16;6277147;22;20027;-64
2021/08/29 01:09:53;;;;;;;0.10;0.10;;;;;;;20.49;44.56;100076.19;6228196;22;20427;-65
2021/08/29 01:12:21;;;;;;;0.22;0.22;;;;;;;20.46;44.42;100071.16;6275954;22;20060;-63
2021/08/29 01:14:55;;;;;;;0.10;0.10;;;;;;;20.48;44.68;100079.84;6251963;22;20015;-64
2021/08/29 01:17:24;;;;;;;0.10;0.10;;;;;;;20.48;44.41;100074.53;6301859;22;20015;-63
2021/08/29 01:19:57;;;;;;;0.10;0.10;;;;;;;20.48;44.42;100077.19;6275835;22;20015;-65
2021/08/29 01:22:24;;;;;;;2.25;0.35;;;;;;;20.52;44.64;100075.88;6276323;22;20533;-64
2021/08/29 01:24:50;;;;;;;0.10;0.10;;;;;;;20.57;44.37;100071.00;6225218;22;20080;-65
2021/08/29 01:27:19;;;;;;;0.40;0.40;;;;;;;20.60;44.36;100070.72;6251128;22;20027;-64
2021/08/29 01:29:46;;;;;;;0.10;0.10;;;;;;;20.59;44.19;100066.38;6250300;22;20388;-65
2021/08/29 01:32:13;;;;;;;0.32;0.32;;;;;;;20.63;44.23;100066.94;6251077;22;20365;-64
2021/08/29 01:34:46;;;;;;;0.10;0.10;;;;;;;20.66;44.09;100072.81;6275450;22;20449;-65
2021/08/29 01:37:22;;;;;;;0.10;0.10;;;;;;;20.68;44.05;100070.03;6302315;22;20069;-64
2021/08/29 01:39:49;;;;;;;0.15;0.15;;;;;;;20.68;44.09;100077.97;6302924;22;20019;-65
2021/08/29 01:42:21;;;;;;;0.10;0.10;;;;;;;20.66;44.11;100066.66;6252020;22;20073;-65
2021/08/29 01:44:48;;;;;;;0.10;0.10;;;;;;;20.72;43.94;100072.22;6250102;22;20023;-65
2021/08/29 01:47:17;;;;;;;0.10;0.10;;;;;;;20.70;43.99;100076.84;6276005;22;20441;-64
2021/08/29 01:49:44;;;;;;;0.10;0.10;;;;;;;20.75;44.00;100082.56;6250023;22;20072;-65
2021/08/29 01:52:10;;;;;;;0.10;0.10;;;;;;;20.75;43.86;100082.56;6275963;22;20019;-64
2021/08/29 01:54:55;;;;;;;0.10;0.10;;;;;;;20.77;43.97;100085.06;6232741;22;20041;-65
2021/08/29 01:57:40;;;;;;;0.20;0.20;;;;;;;20.77;43.88;100079.78;6275980;22;20465;-65
2021/08/29 02:00:12;;;;;;;0.15;0.15;;;;;;;20.73;43.86;100084.53;6251836;22;20023;-64
2021/08/29 02:02:39;;;;;;;0.10;0.10;;;;;;;20.78;43.94;100084.06;6301525;22;20019;-63
2021/08/29 02:05:06;;;;;;;0.20;0.20;;;;;;;20.77;43.85;100091.22;6250022;22;20019;-63
2021/08/29 02:07:37;;;;;;;0.30;0.30;;;;;;;20.49;43.82;100041.69;6250614;22;20026;-66
2021/08/29 02:10:36;;;;;;;0.10;0.10;;;;;;;20.77;43.73;100077.97;6284368;22;20022;-64
2021/08/29 02:13:13;;;;;;;0.10;0.10;;;;;;;20.77;43.72;100080.63;6276017;22;20066;-66
2021/08/29 02:15:43;;;;;;;0.28;0.28;;;;;;;20.76;43.98;100075.44;6225462;22;20058;-64
2021/08/29 02:18:11;;;;;;;0.30;0.30;;;;;;;20.75;43.92;100079.06;6301713;22;20028;-65
2021/08/29 02:20:41;;;;;;;0.13;0.13;;;;;;;20.73;43.80;100073.91;6301360;22;20026;-66
2021/08/29 02:23:09;;;;;;;0.10;0.10;;;;;;;20.70;43.86;100068.88;6250676;22;20030;-65
2021/08/29 02:25:35;;;;;;;0.10;0.10;;;;;;;20.70;43.93;100076.84;6225151;22;20481;-65
2021/08/29 02:28:01;;;;;;;0.10;0.10;;;;;;;20.66;43.71;100066.66;6302600;22;20367;-64
2021/08/29 02:30:27;;;;;;;0.10;0.10;;;;;;;20.66;43.96;100062.19;6275872;22;20097;-64
2021/08/29 02:32:58;;;;;;;0.10;0.10;;;;;;;20.70;43.95;100068.88;6301120;22;20023;-65
2021/08/29 02:35:27;;;;;;;0.10;0.10;;;;;;;20.70;43.98;100065.41;6226189;22;20019;-64
2021/08/29 02:37:56;;;;;;;0.10;0.10;;;;;;;20.70;43.89;100063.59;6301043;22;20026;-66
2021/08/29 02:40:22;;;;;;;0.10;0.10;;;;;;;20.74;44.00;100069.44;6250702;22;20534;-65
2021/08/29 02:42:48;;;;;;;0.57;0.57;;;;;;;20.72;44.00;100068.72;6250047;22;20474;-66
2021/08/29 02:45:14;;;;;;;0.30;0.30;;;;;;;20.70;43.68;100071.53;6249991;22;20019;-65
2021/08/29 02:47:42;;;;;;;0.10;0.10;;;;;;;20.75;43.70;100074.59;6251600;22;20038;-65
2021/08/29 02:50:09;;;;;;;0.10;0.10;;;;;;;20.70;43.93;100066.25;6277141;22;20455;-64
2021/08/29 02:52:41;;;;;;;0.10;0.10;;;;;;;20.74;43.73;100070.25;6253452;22;20441;-65
2021/08/29 02:55:07;;;;;;;0.10;0.10;;;;;;;20.84;43.83;100082.69;6277287;22;20459;-65
2021/08/29 02:57:34;;;;;;;0.20;0.20;;;;;;;20.84;43.69;100083.53;6252321;22;20026;-65
2021/08/29 03:00:19;;;;;;;0.20;0.20;;;;;;;20.85;43.60;100087.00;6260359;22;20019;-64
2021/08/29 03:02:47;;;;;;;0.10;0.10;;;;;;;20.85;43.60;100081.69;6277050;22;20365;-65
2021/08/29 03:05:13;;;;;;;0.10;0.10;;;;;;;20.85;43.60;100089.66;6277231;22;20534;-65
2021/08/29 03:07:42;;;;;;;0.10;0.10;;;;;;;20.89;43.68;100091.03;6303145;22;20145;-64
2021/08/29 03:10:09;;;;;;;0.25;0.25;;;;;;;20.90;43.63;100084.75;6304481;22;20327;-66
2021/08/29 03:12:35;;;;;;;0.40;0.40;;;;;;;20.94;43.61;100086.16;6304561;22;20458;-65
2021/08/29 03:15:24;;;;;;;0.10;0.10;;;;;;;20.98;43.46;100082.22;6292096;22;20027;-64
2021/08/29 03:17:50;;;;;;;0.10;0.10;;;;;;;21.05;43.20;100089.47;6277149;22;20014;-66
2021/08/29 03:20:17;;;;;;;0.10;0.10;;;;;;;21.09;43.20;100085.56;6277320;22;20015;-65
2021/08/29 03:22:48;;;;;;;0.30;0.30;;;;;;;21.17;43.06;100085.66;6302823;22;20015;-65
2021/08/29 03:25:15;;;;;;;0.10;0.10;;;;;;;21.27;42.60;100085.63;6302961;22;20045;-64
2021/08/29 03:27:41;;;;;;;0.10;0.10;;;;;;;21.36;42.54;100082.09;6277039;22;20046;-64
2021/08/29 03:30:08;;;;;;;0.10;0.10;;;;;;;21.45;42.36;100091.00;6277664;22;20019;-63
2021/08/29 03:32:34;;;;;;;0.10;0.10;;;;;;;21.52;42.10;100100.91;6251509;22;20019;-63
2021/08/29 03:35:01;;;;;;;0.22;0.22;;;;;;;21.59;42.04;100088.69;6276858;22;20026;-63
2021/08/29 03:37:30;;;;;;;0.45;0.45;;;;;;;21.73;41.64;100092.66;6277607;22;20019;-62
2021/08/29 03:40:02;;;;;;;0.10;0.10;;;;;;;21.86;41.37;100100.28;6276592;22;20015;-63
2021/08/29 03:42:36;;;;;;;0.20;0.20;;;;;;;22.09;40.83;100097.06;6277129;22;20079;-62
2021/08/29 03:45:09;;;;;;;0.30;0.30;;;;;;;22.73;39.77;100091.47;6276549;22;20015;-65
2021/08/29 03:47:39;;;;;;;0.20;0.20;;;;;;;23.11;38.72;100094.69;6252450;22;20332;-66
2021/08/29 03:50:08;;;;;;;0.20;0.20;;;;;;;22.99;38.88;100088.81;6250963;22;20344;-66
2021/08/29 03:52:42;;;;;;;0.20;0.20;;;;;;;22.96;39.00;100086.47;6276978;22;20080;-65
2021/08/29 03:55:17;;;;;;;0.13;0.13;;;;;;;23.04;38.82;100097.16;6277046;22;20402;-66
2021/08/29 03:57:43;;;;;;;0.28;0.28;;;;;;;22.92;38.93;100093.09;6251690;22;20138;-66
2021/08/29 04:00:10;;;;;;;0.15;0.15;;;;;;;22.88;39.05;100090.88;6303837;22;20545;-65
2021/08/29 04:02:42;;;;;;;0.10;0.10;;;;;;;22.83;39.20;100086.91;6303919;22;20132;-65
2021/08/29 04:05:17;;;;;;;0.40;0.40;;;;;;;22.90;39.00;100078.28;6276875;22;20553;-65
2021/08/29 04:07:43;;;;;;;0.22;0.22;;;;;;;23.22;38.54;100076.63;6304150;22;20037;-65
2021/08/29 04:10:10;;;;;;;0.43;0.43;;;;;;;23.88;37.06;100075.88;6250803;22;20374;-66
2021/08/29 04:12:40;;;;;;;0.20;0.20;;;;;;;24.38;36.29;100075.78;6276753;22;20068;-61
2021/08/29 04:15:39;;;;;;;0.30;0.30;;;;;;;24.96;35.04;100069.41;6233700;22;20026;-64
2021/08/29 04:18:06;;;;;;;0.30;0.30;;;;;;;25.50;34.21;100081.91;6276352;22;20015;-66
2021/08/29 04:20:33;;;;;;;0.20;0.20;;;;;;;25.92;33.44;100068.97;6251368;22;20471;-65
2021/08/29 04:22:59;;;;;;;0.20;0.20;;;;;;;25.94;33.19;100076.84;6302188;22;20015;-63
2021/08/29 04:25:26;;;;;;;0.20;0.20;;;;;;;26.19;32.85;100074.84;6276545;22;20470;-65
2021/08/29 04:27:52;;;;;;;0.20;0.20;;;;;;;26.24;32.82;100075.97;6276345;22;20019;-68
2021/08/29 04:30:19;;;;;;;0.30;0.30;;;;;;;26.80;31.76;100074.63;6276657;22;20023;-66
2021/08/29 04:32:48;;;;;;;0.20;0.20;;;;;;;27.15;31.13;100067.75;6276477;22;20092;-67
2021/08/29 04:35:21;;;;;;;0.50;0.50;;;;;;;27.38;30.79;100078.38;6252793;22;20026;-67
2021/08/29 04:37:48;;;;;;;0.30;0.30;;;;;;;27.38;30.87;100064.97;6252241;22;20019;-68
2021/08/29 04:40:15;;;;;;;0.20;0.20;;;;;;;27.70;30.29;100072.63;6276670;22;20101;-69
2021/08/29 04:42:55;;;;;;;0.20;0.20;;;;;;;27.62;30.02;100058.47;6302158;22;20018;-68
2021/08/29 04:45:23;;;;;;;0.38;0.38;;;;;;;27.38;30.59;100055.06;6250974;22;20027;-69
2021/08/29 04:47:53;;;;;;;;;;;;;;;26.78;31.40;100065.13;6302550;22;20026;-69
2021/08/29 04:50:20;;;;;;;0.10;0.10;;;;;;;26.22;32.76;100064.63;6251116;22;19985;-68
2021/08/29 04:52:46;;;;;;;0.30;0.30;;;;;;;25.95;33.26;100072.31;6276534;22;20019;-69
2021/08/29 04:55:12;;;;;;;0.20;0.20;;;;;;;25.82;33.54;100081.75;6276189;22;20042;-69
2021/08/29 04:57:39;;;;;;;0.20;0.20;;;;;;;25.96;33.19;100082.00;6276467;22;20112;-68
2021/08/29 05:00:07;;;;;;;0.20;0.20;;;;;;;26.52;32.13;100070.88;6250865;22;20019;-69
2021/08/29 05:02:33;;;;;;;0.75;0.50;;;;;;;26.96;31.71;100083.56;6276416;22;20114;-68
2021/08/29 05:05:01;;;;;;;0.43;0.43;;;;;;;27.67;30.44;100086.41;6303187;22;20470;-65
2021/08/29 05:07:27;;;;;;;0.20;0.20;;;;;;;28.24;29.46;100085.63;6276389;22;20022;-65
2021/08/29 05:09:53;;;;;;;0.32;0.32;;;;;;;28.14;29.56;100085.91;6303200;22;20026;-66
2021/08/29 05:12:19;;;;;;;0.22;0.22;;;;;;;27.59;30.42;100086.50;6276276;22;20019;-66
2021/08/29 05:14:45;;;;;;;0.10;0.10;;;;;;;27.15;30.62;100074.97;6301926;22;20027;-66
2021/08/29 05:17:12;;;;;;;0.30;0.30;;;;;;;27.03;31.18;100074.59;6276129;22;20011;-67
2021/08/29 05:19:47;;;;;;;0.30;0.30;;;;;;;27.11;31.22;100071.81;6302117;22;20023;-66
2021/08/29 05:22:33;;;;;;;0.20;0.20;;;;;;;26.89;31.58;100068.22;6304259;22;20015;-66
2021/08/29 05:25:17;;;;;;;0.10;0.10;;;;;;;26.77;31.88;100069.63;6303847;22;20014;-67
2021/08/29 05:27:46;;;;;;;0.20;0.20;;;;;;;26.79;32.08;100072.97;6276621;22;20098;-65
2021/08/29 05:30:13;;;;;;;0.10;0.10;;;;;;;26.69;32.22;100072.41;6275777;22;20019;-65
2021/08/29 05:32:39;;;;;;;0.20;0.20;;;;;;;26.76;32.19;100061.78;6301799;22;20025;-63
2021/08/29 05:35:06;;;;;;;0.10;0.10;;;;;;;26.93;31.91;100064.13;6275725;22;20109;-63
2021/08/29 05:37:32;;;;;;;0.20;0.20;;;;;;;27.21;31.43;100066.19;6276739;22;20019;-67
2021/08/29 05:40:17;;;;;;;0.45;0.45;;;;;;;27.58;30.59;100066.09;6303525;22;20019;-66
2021/08/29 05:43:03;;;;;;;0.20;0.20;;;;;;;28.54;29.00;100076.34;6302874;22;20015;-67
2021/08/29 05:45:30;;;;;;;0.22;0.22;;;;;;;28.98;28.55;100078.78;6251423;22;20019;-62
2021/08/29 05:47:57;;;;;;;0.10;0.10;;;;;;;28.58;28.69;100082.19;6225332;22;20015;-62
2021/08/29 05:50:24;;;;;;;0.10;0.10;;;;;;;28.37;29.23;100088.41;6276395;22;20054;-64
2021/08/29 05:52:50;;;;;;;0.20;0.20;;;;;;;28.38;29.37;100077.47;6303496;22;20050;-63
2021/08/29 05:55:16;;;;;;;0.90;0.90;;;;;;;28.49;29.03;100077.97;6302790;22;20043;-61
2021/08/29 05:57:43;;;;;;;0.82;0.82;;;;;;;28.27;29.33;100074.50;6275971;22;20023;-62
2021/08/29 06:00:11;;;;;;;0.65;0.65;;;;;;;29.10;28.23;100069.13;6275466;22;20022;-63
2021/08/29 06:02:41;;;;;;;0.40;0.40;;;;;;;30.21;26.77;100062.50;6276795;22;20023;-65
2021/08/29 06:05:07;;;;;;;0.20;0.20;;;;;;;32.66;23.26;100063.13;6301205;22;20080;-66
2021/08/29 06:07:48;;;;;;;0.30;0.30;;;;;;;35.96;19.32;100055.81;6275924;22;20446;-66
2021/08/29 06:10:14;;;;;;;0.30;0.30;;;;;;;37.44;17.32;100060.59;6302811;22;20049;-66
2021/08/29 06:12:40;;;;;;;0.43;0.43;;;;;;;38.90;16.25;100053.00;6275999;22;20023;-67
2021/08/29 06:15:07;;;;;;;0.55;0.55;;;;;;;39.52;15.64;100054.94;6275270;22;20020;-67
2021/08/29 06:17:33;;;;;;;0.45;0.45;;;;;;;40.03;14.76;100051.22;6303280;22;20024;-65
2021/08/29 06:19:59;;;;;;;0.30;0.30;;;;;;;40.56;14.29;100049.09;6249655;22;20027;-66
2021/08/29 06:22:27;;;;;;;0.20;0.20;;;;;;;40.81;14.23;100051.78;6277506;22;20019;-65
2021/08/29 06:25:16;;;;;;;0.30;0.30;;;;;;;40.97;13.86;100042.44;6304132;22;20084;-68
2021/08/29 06:28:05;;;;;;;0.30;0.30;;;;;;;41.16;13.67;100052.81;6247117;22;20027;-68
2021/08/29 06:31:09;;;;;;;0.30;0.30;;;;;;;41.06;13.76;100051.75;6179893;23;20133;-66
2021/08/29 06:33:55;;;;;;;0.30;0.30;;;;;;;39.20;15.24;100062.44;6159391;23;20021;-64
2021/08/29 06:36:24;;;;;;;0.32;0.32;;;;;;;36.14;18.05;100067.59;6242430;22;20027;-67
2021/08/29 06:38:50;;;;;;;1.90;0.60;;;;;;;34.04;20.94;100058.78;6303688;22;20043;-67
2021/08/29 06:41:16;;;;;;;0.25;0.25;;;;;;;32.88;22.21;100056.25;6277390;22;20343;-67
2021/08/29 06:43:43;;;;;;;0.20;0.20;;;;;;;32.17;23.54;100060.38;6278351;22;20030;-67
2021/08/29 06:46:29;;;;;;;0.10;0.10;;;;;;;31.68;23.95;100061.88;6304910;22;20041;-67
2021/08/29 06:48:58;;;;;;;0.30;0.30;;;;;;;31.37;24.84;100065.34;6305053;22;20015;-67
2021/08/29 06:51:46;;;;;;;0.10;0.10;;;;;;;30.37;25.79;100046.78;6260899;22;20027;-67
2021/08/29 06:54:36;;;;;;;0.25;0.25;;;;;;;29.79;26.84;100051.03;6233124;22;20715;-67
2021/08/29 06:57:24;;;;;;;0.10;0.10;;;;;;;29.34;28.04;100057.09;6304558;22;20090;-66
2021/08/29 06:59:51;;;;;;;0.10;0.10;;;;;;;29.07;28.07;100061.47;6227242;22;20019;-67
2021/08/29 07:02:17;;;;;;;0.25;0.25;;;;;;;28.83;28.41;100030.50;6304411;22;20023;-66
2021/08/29 07:04:43;;;;;;;0.10;0.10;;;;;;;28.79;28.97;100042.69;6277497;22;20126;-66
2021/08/29 07:07:11;;;;;;;0.10;0.10;;;;;;;28.59;29.11;100046.22;6277269;22;20072;-69
2021/08/29 07:10:07;;;;;;;0.20;0.20;;;;;;;28.88;28.89;100049.56;6284043;22;20026;-63
2021/08/29 07:12:49;;;;;;;0.63;0.63;;;;;;;29.39;28.11;100041.16;6303381;22;20026;-65
2021/08/29 07:15:36;;;;;;;0.10;0.10;;;;;;;29.66;27.62;100039.38;6304248;22;20041;-64
2021/08/29 07:18:04;;;;;;;0.43;0.43;;;;;;;29.31;27.96;100044.88;6277434;22;20015;-65
2021/08/29 07:21:09;;;;;;;0.10;0.10;;;;;;;29.05;28.60;100052.78;6192467;23;20105;-64
2021/08/29 07:23:54;;;;;;;0.10;0.10;;;;;;;29.05;28.74;100046.56;6210079;23;20017;-63
2021/08/29 07:26:39;;;;;;;0.30;0.30;;;;;;;29.39;28.17;100044.69;6278743;22;20077;-64
2021/08/29 07:29:23;;;;;;;0.22;0.22;;;;;;;29.53;27.88;100040.19;6304404;22;20077;-64
2021/08/29 07:32:08;;;;;;;0.10;0.10;;;;;;;29.33;28.27;100033.88;6303943;22;20019;-64
2021/08/29 07:34:34;;;;;;;0.10;0.10;;;;;;;29.22;28.58;100042.50;6277371;22;20065;-63
2021/08/29 07:37:26;;;;;;;0.10;0.10;;;;;;;28.89;29.06;100047.72;6304239;22;20085;-63
2021/08/29 07:39:52;;;;;;;0.20;0.20;;;;;;;28.60;29.39;100037.16;6302842;22;20018;-63
2021/08/29 07:42:19;;;;;;;0.10;0.10;;;;;;;28.55;29.50;100044.94;6251660;22;20015;-65
2021/08/29 07:44:45;;;;;;;0.32;0.32;;;;;;;28.53;29.74;100047.84;6304306;22;20336;-66
2021/08/29 07:47:14;;;;;;;0.10;0.10;;;;;;;28.40;29.80;100047.75;6276749;22;20050;-66
2021/08/29 07:49:40;;;;;;;0.32;0.25;;;;;;;28.20;30.11;100049.41;6302828;22;20026;-66
2021/08/29 07:52:07;;;;;;;0.13;0.13;;;;;;;28.07;30.63;100046.59;6302393;22;20050;-66
2021/08/29 07:54:59;;;;;;;0.17;0.17;;;;;;;28.05;30.83;100043.22;6304111;22;20459;-65
2021/08/29 07:57:51;;;;;;;0.10;0.10;;;;;;;28.20;30.51;100019.88;6304334;22;20019;-67
2021/08/29 08:00:24;;;;;;;0.10;0.10;;;;;;;28.59;29.92;100030.94;6227456;22;20033;-67
2021/08/29 08:03:10;;;;;;;0.10;0.10;;;;;;;28.70;29.67;100040.31;6255918;22;20019;-66
2021/08/29 08:06:04;;;;;;;0.10;0.10;;;;;;;28.56;29.90;100030.50;6299448;22;20019;-66
2021/08/29 08:08:49;;;;;;;0.10;0.10;;;;;;;28.53;30.32;100020.13;6304265;22;20022;-66
2021/08/29 08:11:30;;;;;;;0.30;0.30;;;;;;;28.49;30.18;100017.00;6304075;22;20019;-67
2021/08/29 08:13:57;;;;;;;0.20;0.20;;;;;;;28.28;30.71;100020.56;6251657;22;20015;-66
2021/08/29 08:16:22;;;;;;;0.10;0.10;;;;;;;28.23;30.71;100014.13;6276403;22;20449;-66
2021/08/29 08:18:49;;;;;;;0.10;0.10;;;;;;;28.11;31.13;100000.34;6276736;22;20015;-68
2021/08/29 08:21:15;;;;;;;0.30;0.30;;;;;;;28.14;31.23;100016.09;6276350;22;20021;-67
2021/08/29 08:24:00;;;;;;;0.10;0.10;;;;;;;28.08;31.36;100011.50;6304415;22;20026;-67
2021/08/29 08:26:26;;;;;;;0.10;0.10;;;;;;;28.00;31.76;99995.50;6303940;22;20019;-67
2021/08/29 08:29:11;;;;;;;0.10;0.10;;;;;;;28.00;31.42;99997.34;6280651;22;20065;-66
2021/08/29 08:31:56;;;;;;;0.10;0.10;;;;;;;28.03;31.39;99973.63;6303872;22;20022;-67
2021/08/29 08:34:40;;;;;;;0.10;0.10;;;;;;;28.06;31.69;99997.44;6276596;22;20019;-67
2021/08/29 08:37:15;;;;;;;0.50;0.50;;;;;;;28.00;31.83;100000.03;6276400;22;20094;-67
2021/08/29 08:40:00;;;;;;;0.20;0.20;;;;;;;27.88;31.82;99979.06;6303871;22;20045;-66
2021/08/29 08:42:47;;;;;;;0.20;0.20;;;;;;;27.73;31.91;99959.53;6302327;22;20478;-66
2021/08/29 08:45:43;;;;;;;0.10;0.10;;;;;;;27.67;32.55;99981.75;6219623;22;20079;-67
2021/08/29 08:48:27;;;;;;;0.98;0.40;;;;;;;27.60;32.42;99970.13;6258892;22;20042;-67
2021/08/29 08:51:12;;;;;;;0.20;0.20;;;;;;;27.54;32.34;99986.16;6280222;22;20022;-67
2021/08/29 08:53:58;;;;;;;0.10;0.10;;;;;;;27.48;32.66;99971.66;6254770;22;20046;-67
2021/08/29 08:56:44;;;;;;;0.10;0.10;;;;;;;27.45;32.96;99985.44;6276067;22;20027;-67
2021/08/29 08:59:30;;;;;;;0.10;0.10;;;;;;;27.37;32.67;99988.19;6280302;22;20098;-67
2021/08/29 09:02:23;;;;;;;0.10;0.10;;;;;;;27.32;33.21;99971.84;6280604;22;20113;-66
2021/08/29 09:04:58;;;;;;;0.10;0.10;;;;;;;27.33;33.11;99985.06;6303589;22;20023;-67
2021/08/29 09:07:24;;;;;;;0.13;0.13;;;;;;;27.28;33.45;99987.50;6276041;22;20023;-66
2021/08/29 09:09:51;;;;;;;0.22;0.22;;;;;;;27.28;33.36;99992.84;6276362;22;20015;-67
2021/08/29 09:12:18;;;;;;;0.10;0.10;;;;;;;27.22;33.23;99987.41;6276030;22;20023;-64
2021/08/29 09:14:45;;;;;;;0.20;0.20;;;;;;;27.18;33.58;99988.78;6276218;22;20458;-65
2021/08/29 09:17:34;;;;;;;0.50;0.50;;;;;;;27.16;33.59;99980.13;6301671;22;20060;-64
2021/08/29 09:20:17;;;;;;;0.10;0.10;;;;;;;27.10;33.88;99984.34;6275914;22;20110;-64
2021/08/29 09:22:46;;;;;;;0.10;0.10;;;;;;;27.06;33.90;99982.25;6276158;22;20859;-64
2021/08/29 09:25:44;;;;;;;0.10;0.10;;;;;;;26.99;33.70;99981.34;6234580;22;20051;-64
2021/08/29 10:14:27;;;;;;;0.20;0.20;;;;;;;27.22;33.69;99995.44;6272013;22;19922;-65
2021/08/29 10:17:13;;;;;;;0.10;0.10;;;;;;;27.06;34.22;99998.34;6245358;22;20023;-65
2021/08/29 10:20:30;;;;;;;0.20;0.20;;;;;;;26.93;34.38;100002.50;6170685;22;20777;-65
2021/08/29 10:23:17;;;;;;;0.20;0.20;;;;;;;26.88;34.55;99994.19;6203716;22;20043;-63
2021/08/29 10:25:43;;;;;;;0.10;0.10;;;;;;;26.93;34.62;99997.13;6220147;22;20134;-63
2021/08/29 10:28:38;;;;;;;0.10;0.10;;;;;;;27.02;34.79;99991.69;6224456;22;20065;-64
2021/08/29 10:31:28;;;;;;;0.20;0.20;;;;;;;27.09;34.35;99988.09;6271140;22;20432;-65
2021/08/29 10:34:13;;;;;;;0.10;0.10;;;;;;;27.15;34.50;99986.50;6244897;22;20016;-65
2021/08/29 10:36:39;;;;;;;0.50;0.50;;;;;;;27.11;34.08;99982.50;6245526;22;20038;-65
2021/08/29 10:39:05;;;;;;;0.50;0.50;;;;;;;27.00;34.22;99975.78;6272163;22;20019;-64
2021/08/29 10:41:58;;;;;;;0.50;0.50;;;;;;;27.04;34.59;99986.97;6236401;22;20020;-64
2021/08/29 10:44:44;;;;;;;0.10;0.10;;;;;;;26.97;34.43;100005.63;6249756;22;20149;-66
2021/08/29 10:47:29;;;;;;;0.10;0.10;;;;;;;26.91;34.63;100001.03;6271751;22;20068;-66
2021/08/29 10:50:18;;;;;;;0.10;0.10;;;;;;;26.80;35.07;99999.59;6272215;22;20027;-64
2021/08/29 10:52:45;;;;;;;0.20;0.20;;;;;;;26.71;35.25;100000.72;6245589;22;20474;-62
2021/08/29 10:55:14;;;;;;;0.10;0.10;;;;;;;26.64;35.55;99999.78;6244741;22;20026;-62
2021/08/29 10:57:42;;;;;;;0.10;0.10;;;;;;;26.55;35.57;99997.38;6244909;22;20024;-63
2021/08/29 11:00:17;;;;;;;0.10;0.10;;;;;;;26.47;35.66;99992.94;6271936;22;20500;-64
2021/08/29 11:02:45;;;;;;;0.10;0.10;;;;;;;26.42;35.75;99995.31;6271870;22;20054;-64
2021/08/29 11:05:31;;;;;;;0.08;0.08;;;;;;;26.40;35.81;99998.19;6269327;22;20016;-65
2021/08/29 11:08:06;;;;;;;0.10;0.10;;;;;;;26.43;35.93;99986.28;6245986;22;20400;-66
2021/08/29 11:10:38;;;;;;;0.10;0.10;;;;;;;26.54;35.88;99993.84;6221202;22;20467;-67
2021/08/29 11:13:32;;;;;;;0.13;0.13;;;;;;;26.64;35.73;99991.75;6264570;22;20081;-66
2021/08/29 11:16:14;;;;;;;0.20;0.20;;;;;;;26.77;35.35;99993.78;6277737;22;20042;-65
2021/08/29 11:19:06;;;;;;;0.20;0.20;;;;;;;26.94;35.01;99987.25;6304447;22;20080;-64
2021/08/29 11:21:55;;;;;;;0.10;0.10;;;;;;;27.02;34.83;99987.16;6303072;22;20019;-65
2021/08/29 11:25:01;;;;;;;0.00;0.00;;;;;;;27.07;34.71;99990.09;6304224;22;20168;-65
2021/08/29 11:27:34;;;;;;;0.10;0.10;;;;;;;27.08;34.62;100004.34;6276796;22;20023;-64
2021/08/29 11:30:25;;;;;;;0.10;0.10;;;;;;;27.06;34.88;99998.34;6303498;22;20347;-65
2021/08/29 11:32:58;;;;;;;0.20;0.20;;;;;;;27.02;34.67;100002.41;6251424;22;20344;-65
2021/08/29 11:35:27;;;;;;;0.10;0.10;;;;;;;26.96;34.86;99997.78;6276784;22;20023;-64
2021/08/29 11:38:37;;;;;;;0.10;0.10;;;;;;;26.89;35.45;100003.91;6256153;22;20022;-63
2021/08/29 11:41:16;;;;;;;0.17;0.17;;;;;;;26.79;35.49;100003.31;6228673;22;20118;-63
2021/08/29 11:43:44;;;;;;;0.20;0.20;;;;;;;26.72;35.72;99997.03;6252151;22;20022;-63
2021/08/29 11:46:19;;;;;;;0.13;0.13;;;;;;;26.64;35.86;99999.78;6302618;22;20019;-63
2021/08/29 11:49:13;;;;;;;0.10;0.10;;;;;;;26.57;36.03;99992.69;6298163;22;20122;-63
2021/08/29 11:51:44;;;;;;;0.20;0.20;;;;;;;26.51;36.09;99993.38;6252959;22;20019;-63
2021/08/29 11:54:21;;;;;;;0.10;0.10;;;;;;;26.41;36.33;99980.25;6277044;22;20020;-63
2021/08/29 11:56:59;;;;;;;0.10;0.10;;;;;;;26.48;35.96;99983.88;6304345;22;20015;-63
2021/08/29 11:59:27;;;;;;;0.22;0.22;;;;;;;26.54;35.91;99983.13;6251305;22;20019;-64
2021/08/29 12:01:54;;;;;;;0.10;0.10;;;;;;;26.70;35.83;99977.59;6251208;22;20034;-64
2021/08/29 12:04:21;;;;;;;0.10;0.10;;;;;;;26.99;35.90;99981.34;6276669;22;20015;-64
2021/08/29 12:07:08;;;;;;;0.10;0.10;;;;;;;27.21;35.47;99975.00;6303939;22;20469;-63
2021/08/29 12:09:53;;;;;;;0.30;0.30;;;;;;;27.31;34.88;99981.75;6260219;22;20030;-63
2021/08/29 12:12:22;;;;;;;0.10;0.10;;;;;;;27.33;34.69;99985.06;6303257;22;20030;-63
2021/08/29 12:15:07;;;;;;;0.38;0.38;;;;;;;27.27;34.89;99984.97;6259527;22;20102;-63
2021/08/29 12:18:03;;;;;;;0.10;0.10;;;;;;;27.25;34.79;99981.66;6263970;22;20045;-63
2021/08/29 12:20:33;;;;;;;0.10;0.10;;;;;;;27.28;35.20;99983.97;6275867;22;20092;-64
2021/08/29 12:23:19;;;;;;;0.10;0.10;;;;;;;27.22;35.16;99965.97;6303754;22;20022;-63
2021/08/29 12:25:59;;;;;;;0.10;0.10;;;;;;;27.23;34.97;99964.91;6277592;22;20030;-63
2021/08/29 12:28:26;;;;;;;0.17;0.17;;;;;;;27.16;35.19;99972.06;6276346;22;20026;-64
2021/08/29 12:30:54;;;;;;;0.10;0.10;;;;;;;27.09;35.09;99973.84;6302360;22;20043;-64
2021/08/29 12:33:21;;;;;;;0.10;0.10;;;;;;;27.10;35.21;99972.81;6276196;22;20042;-66
2021/08/29 12:35:48;;;;;;;0.10;0.10;;;;;;;27.03;35.59;99970.03;6276338;22;20023;-65
2021/08/29 12:38:29;;;;;;;0.10;0.10;;;;;;;26.98;35.65;99977.81;6276544;22;20071;-64
2021/08/29 12:40:58;;;;;;;0.10;0.10;;;;;;;26.87;35.70;99987.16;6276548;22;20469;-65
2021/08/29 12:43:28;;;;;;;0.10;0.10;;;;;;;26.82;36.02;99988.75;6276253;22;20019;-65